Time;durP1;ratioP1;P1;durP2;ratioP2;P2;SDS_P1;SDS_P2;PMS_P1;PMS_P2;Temp;Humidity;BMP_temperature;BMP_pressure;BME280_temperature;BME280_humidity;BME280_pressure;Samples;Min_cycle;Max_cycle;Signal;HPM_P1;HPM_P2
2021/06/28 00:00:44;;;;;;;;;8.67;8.00;;;;;-147.17;100.00;59696.56;4968239;28;51211;-58
2021/06/28 00:03:10;;;;;;;;;7.00;7.00;;;;;-147.17;100.00;59696.56;4964124;28;50998;-59
2021/06/28 00:05:35;;;;;;;;;7.00;7.00;;;;;-147.17;100.00;59696.56;4965247;28;51186;-59
2021/06/28 00:08:02;;;;;;;;;6.00;6.00;;;;;-147.17;100.00;59696.56;4953792;28;51021;-59
2021/06/28 00:10:29;;;;;;;;;8.67;8.00;;;;;-147.17;100.00;59696.56;4971590;28;51568;-61
2021/06/28 00:12:56;;;;;;;;;7.67;7.00;;;;;-147.17;100.00;59696.56;4963003;28;52132;-59
2021/06/28 00:15:27;;;;;;;;;7.33;6.67;;;;;-147.17;100.00;59696.56;4963390;28;51325;-58
2021/06/28 00:17:52;;;;;;;;;8.33;8.00;;;;;-147.17;100.00;59696.56;4953999;28;51067;-59
2021/06/28 00:20:19;;;;;;;;;9.00;9.00;;;;;-147.17;100.00;59696.56;4953565;28;50982;-60
2021/06/28 00:22:46;;;;;;;;;9.00;9.00;;;;;-147.17;100.00;59696.56;4952654;28;51053;-59
2021/06/28 00:25:14;;;;;;;;;8.33;8.00;;;;;-147.17;100.00;59696.56;4951839;28;50955;-59
2021/06/28 00:27:41;;;;;;;;;8.33;8.33;;;;;-147.17;100.00;59696.56;4953268;28;51237;-60
2021/06/28 00:30:09;;;;;;;;;7.33;7.33;;;;;-147.17;100.00;59696.56;4959361;28;51358;-59
2021/06/28 00:32:35;;;;;;;;;7.00;7.00;;;;;-147.17;100.00;59696.56;4954606;28;52083;-60
2021/06/28 00:35:01;;;;;;;;;10.00;9.00;;;;;-147.17;100.00;59696.56;4953716;28;51014;-58
2021/06/28 00:37:26;;;;;;;;;5.67;5.67;;;;;-147.17;100.00;59696.56;4986883;28;50949;-59
2021/06/28 00:39:51;;;;;;;;;6.00;6.00;;;;;-147.17;100.00;59696.56;4993575;28;51385;-59
2021/06/28 00:42:17;;;;;;;;;6.00;5.67;;;;;-147.17;100.00;59696.56;4981191;28;52463;-59
2021/06/28 00:44:43;;;;;;;;;7.33;7.33;;;;;-147.17;100.00;59696.56;4972242;28;50903;-59
2021/06/28 00:47:08;;;;;;;;;4.33;4.33;;;;;-147.17;100.00;59696.56;4972528;28;51098;-59
2021/06/28 00:49:33;;;;;;;;;3.33;3.33;;;;;-147.17;100.00;59696.56;4978776;28;51522;-59
2021/06/28 00:51:59;;;;;;;;;5.00;5.00;;;;;-147.17;100.00;59696.56;4988085;28;52863;-59
2021/06/28 00:54:25;;;;;;;;;5.00;5.00;;;;;-147.17;100.00;59696.56;4973214;28;50996;-60
2021/06/28 00:56:52;;;;;;;;;6.00;6.00;;;;;-147.17;100.00;59696.56;4972675;28;51081;-59
2021/06/28 00:59:18;;;;;;;;;5.00;5.00;;;;;-147.17;100.00;59696.56;4955003;28;51036;-59
2021/06/28 01:01:43;;;;;;;;;5.33;5.33;;;;;-147.17;100.00;59696.56;4978561;28;53193;-59
2021/06/28 01:04:09;;;;;;;;;8.00;8.00;;;;;-147.17;100.00;59696.56;4974368;28;51073;-59
2021/06/28 01:06:35;;;;;;;;;6.00;6.00;;;;;-147.17;100.00;59696.56;4972373;28;51136;-59
2021/06/28 01:09:00;;;;;;;;;7.00;7.00;;;;;-147.17;100.00;59696.56;4972688;28;51298;-59
2021/06/28 01:11:26;;;;;;;;;8.00;8.00;;;;;-147.17;100.00;59696.56;4981011;28;51198;-59
2021/06/28 01:13:52;;;;;;;;;8.00;7.00;;;;;-147.17;100.00;59696.56;4977089;28;50985;-59
2021/06/28 01:16:18;;;;;;;;;7.00;6.33;;;;;-147.17;100.00;59696.56;4981397;28;50859;-59
2021/06/28 01:18:43;;;;;;;;;9.00;9.00;;;;;-147.17;100.00;59696.56;4960814;28;50879;-58
2021/06/28 01:21:11;;;;;;;;;8.00;8.00;;;;;-147.17;100.00;59696.56;4972902;28;52050;-59
2021/06/28 01:23:38;;;;;;;;;8.33;8.00;;;;;-147.17;100.00;59696.56;4987251;28;51062;-59
2021/06/28 01:26:08;;;;;;;;;7.67;7.67;;;;;-147.17;100.00;59696.56;4972133;28;51094;-59
2021/06/28 01:28:34;;;;;;;;;8.00;7.00;;;;;-147.17;100.00;59696.56;4979182;28;52622;-60
2021/06/28 01:31:03;;;;;;;;;5.33;5.00;;;;;-147.17;100.00;59696.56;4991394;28;52110;-59
2021/06/28 01:33:29;;;;;;;;;6.33;6.00;;;;;-147.17;100.00;59696.56;4985176;28;50949;-59
2021/06/28 01:35:54;;;;;;;;;6.67;6.67;;;;;-147.17;100.00;59696.56;4974697;28;51138;-58
2021/06/28 01:38:20;;;;;;;;;7.33;7.33;;;;;-147.17;100.00;59696.56;4995345;28;51331;-60
2021/06/28 01:40:46;;;;;;;;;7.00;7.00;;;;;-147.17;100.00;59696.56;4994207;28;52312;-59
2021/06/28 01:43:12;;;;;;;;;8.33;8.33;;;;;-147.17;100.00;59696.56;4976570;28;50987;-59
2021/06/28 01:45:38;;;;;;;;;10.00;9.33;;;;;-147.17;100.00;59696.56;4957784;28;50989;-59
2021/06/28 01:48:04;;;;;;;;;7.00;6.67;;;;;-147.17;100.00;59696.56;4981298;28;50963;-59
2021/06/28 01:50:32;;;;;;;;;7.00;7.00;;;;;-147.17;100.00;59696.56;4957431;28;52015;-59
2021/06/28 01:52:59;;;;;;;;;8.33;8.00;;;;;-147.17;100.00;59696.56;4980421;28;50950;-59
2021/06/28 01:55:25;;;;;;;;;5.00;5.00;;;;;-147.17;100.00;59696.56;4981872;28;50979;-60
2021/06/28 01:57:53;;;;;;;;;3.00;3.00;;;;;-147.17;100.00;59696.56;4987910;28;51232;-59
2021/06/28 02:00:22;;;;;;;;;3.00;3.00;;;;;-147.17;100.00;59696.56;4981683;28;52006;-59
2021/06/28 02:02:57;;;;;;;;;3.00;3.00;;;;;-147.17;100.00;59696.56;4984702;28;51201;-60
2021/06/28 02:05:23;;;;;;;;;2.00;2.00;;;;;-147.17;100.00;59696.56;4987473;28;51175;-59
2021/06/28 02:07:48;;;;;;;;;4.00;4.00;;;;;-147.17;100.00;59696.56;4977785;28;51123;-60
2021/06/28 02:10:14;;;;;;;;;4.00;3.33;;;;;-147.17;100.00;59696.56;4978848;28;51163;-59
2021/06/28 02:12:39;;;;;;;;;2.00;2.00;;;;;-147.17;100.00;59696.56;4975016;28;50971;-58
2021/06/28 02:15:05;;;;;;;;;1.67;1.67;;;;;-147.17;100.00;59696.56;4987535;28;51232;-59
2021/06/28 02:17:30;;;;;;;;;2.00;2.00;;;;;-147.17;100.00;59696.56;4980842;28;51000;-59
2021/06/28 02:19:56;;;;;;;;;2.00;2.00;;;;;-147.17;100.00;59696.56;4992410;28;51683;-60
2021/06/28 02:22:21;;;;;;;;;2.00;2.00;;;;;-147.17;100.00;59696.56;4994234;28;51014;-60
2021/06/28 02:24:46;;;;;;;;;1.00;1.00;;;;;-147.17;100.00;59696.56;4993055;28;50978;-58
2021/06/28 02:27:12;;;;;;;;;1.00;1.00;;;;;-147.17;100.00;59696.56;4959913;28;50891;-58
2021/06/28 02:29:37;;;;;;;;;1.00;1.00;;;;;-147.17;100.00;59696.56;4993723;28;51878;-59
2021/06/28 02:32:03;;;;;;;;;1.00;1.00;;;;;-147.17;100.00;59696.56;4994443;28;51201;-59
2021/06/28 02:34:28;;;;;;;;;1.00;1.00;;;;;-147.17;100.00;59696.56;4976115;28;50877;-58
2021/06/28 02:36:55;;;;;;;;;1.67;1.67;;;;;-147.17;100.00;59696.56;4993908;28;50914;-59
2021/06/28 02:39:20;;;;;;;;;1.00;1.00;;;;;-147.17;100.00;59696.56;4992919;28;52843;-59
2021/06/28 02:41:45;;;;;;;;;1.00;1.00;;;;;-147.17;100.00;59696.56;4987139;28;51049;-60
2021/06/28 02:44:10;;;;;;;;;1.00;1.00;;;;;-147.17;100.00;59696.56;4974180;28;51099;-60
2021/06/28 02:46:36;;;;;;;;;1.00;1.00;;;;;-147.17;100.00;59696.56;4984848;28;50985;-59
2021/06/28 02:49:01;;;;;;;;;1.67;1.67;;;;;-147.17;100.00;59696.56;4980271;28;51898;-59
2021/06/28 02:51:27;;;;;;;;;2.00;2.00;;;;;-147.17;100.00;59696.56;4985669;28;51215;-59
2021/06/28 02:53:53;;;;;;;;;0.00;0.00;;;;;-147.17;100.00;59696.56;4973498;28;51236;-60
2021/06/28 02:56:20;;;;;;;;;1.67;1.67;;;;;-147.17;100.00;59696.56;4983646;28;51180;-59
2021/06/28 02:58:49;;;;;;;;;2.00;2.00;;;;;-147.17;100.00;59696.56;4993169;28;52154;-59
2021/06/28 03:01:16;;;;;;;;;1.00;1.00;;;;;-147.17;100.00;59696.56;4986862;28;51066;-59
2021/06/28 03:03:42;;;;;;;;;2.00;2.00;;;;;-147.17;100.00;59696.56;4974369;28;51311;-59
2021/06/28 03:06:08;;;;;;;;;1.00;1.00;;;;;-147.17;100.00;59696.56;4974246;28;51295;-58
2021/06/28 03:08:34;;;;;;;;;1.00;1.00;;;;;-147.17;100.00;59696.56;4978943;28;51300;-60
2021/06/28 03:11:02;;;;;;;;;2.00;1.00;;;;;-147.17;100.00;59696.56;4992752;28;51164;-59
2021/06/28 03:13:28;;;;;;;;;1.00;1.00;;;;;-147.17;100.00;59696.56;4992759;28;51006;-59
2021/06/28 03:15:55;;;;;;;;;1.00;1.00;;;;;-147.17;100.00;59696.56;4974497;28;51081;-60
2021/06/28 03:18:20;;;;;;;;;1.00;1.00;;;;;-147.17;100.00;59696.56;4988313;28;51052;-60
2021/06/28 03:20:45;;;;;;;;;1.33;1.33;;;;;-147.17;100.00;59696.56;4986565;28;51094;-60
2021/06/28 03:23:12;;;;;;;;;1.00;1.00;;;;;-147.17;100.00;59696.56;4973890;28;51631;-59
2021/06/28 03:25:39;;;;;;;;;3.00;2.00;;;;;-147.17;100.00;59696.56;4973829;28;51093;-59
2021/06/28 03:28:05;;;;;;;;;1.00;1.00;;;;;-147.17;100.00;59696.56;4985840;28;51292;-59
2021/06/28 03:30:30;;;;;;;;;1.00;1.00;;;;;-147.17;100.00;59696.56;4987396;28;51018;-60
2021/06/28 03:32:56;;;;;;;;;1.33;1.33;;;;;-147.17;100.00;59696.56;4993295;28;51167;-59
2021/06/28 03:35:21;;;;;;;;;1.00;1.00;;;;;-147.17;100.00;59696.56;4986777;28;50930;-60
2021/06/28 03:37:47;;;;;;;;;1.00;1.00;;;;;-147.17;100.00;59696.56;4992266;28;51979;-58
2021/06/28 03:40:12;;;;;;;;;2.00;2.00;;;;;-147.17;100.00;59696.56;4985839;28;51007;-60
2021/06/28 03:42:38;;;;;;;;;3.00;3.00;;;;;-147.17;100.00;59696.56;4974975;28;51133;-60
2021/06/28 03:45:06;;;;;;;;;2.00;2.00;;;;;-147.17;100.00;59696.56;4993096;28;51101;-59
2021/06/28 03:47:31;;;;;;;;;2.00;2.00;;;;;-147.17;100.00;59696.56;4991251;28;51291;-59
2021/06/28 03:49:57;;;;;;;;;2.33;2.33;;;;;-147.17;100.00;59696.56;4976739;28;51151;-59
2021/06/28 03:52:22;;;;;;;;;2.00;2.00;;;;;-147.17;100.00;59696.56;4973126;28;51152;-59
2021/06/28 03:54:47;;;;;;;;;2.00;2.00;;;;;-147.17;100.00;59696.56;4973874;28;51184;-59
2021/06/28 03:57:13;;;;;;;;;2.33;2.33;;;;;-147.17;100.00;59696.56;4976672;28;51065;-59
2021/06/28 03:59:38;;;;;;;;;2.00;2.00;;;;;-147.17;100.00;59696.56;4991282;28;50933;-60
2021/06/28 04:02:04;;;;;;;;;2.00;2.00;;;;;-147.17;100.00;59696.56;4979108;28;51053;-59
2021/06/28 04:04:30;;;;;;;;;2.00;2.00;;;;;-147.17;100.00;59696.56;4973407;28;51445;-60
2021/06/28 04:06:55;;;;;;;;;5.00;5.00;;;;;-147.17;100.00;59696.56;4978899;28;51905;-59
2021/06/28 04:09:20;;;;;;;;;3.33;3.33;;;;;-147.17;100.00;59696.56;4977717;28;50974;-60
2021/06/28 04:11:46;;;;;;;;;4.33;4.33;;;;;-147.17;100.00;59696.56;4973152;28;50888;-60
2021/06/28 04:14:13;;;;;;;;;3.00;3.00;;;;;-147.17;100.00;59696.56;4978149;28;50932;-60
2021/06/28 04:16:38;;;;;;;;;3.00;3.00;;;;;-147.17;100.00;59696.56;4984106;28;52121;-60
2021/06/28 04:19:03;;;;;;;;;2.00;2.00;;;;;-147.17;100.00;59696.56;4981699;28;50919;-59
2021/06/28 04:21:31;;;;;;;;;2.33;2.00;;;;;-147.17;100.00;59696.56;4979219;28;51110;-58
2021/06/28 04:23:56;;;;;;;;;3.00;3.00;;;;;-147.17;100.00;59696.56;4973088;28;51297;-59
2021/06/28 04:26:22;;;;;;;;;3.00;3.00;;;;;-147.17;100.00;59696.56;4982941;28;52649;-60
2021/06/28 04:28:47;;;;;;;;;3.00;3.00;;;;;-147.17;100.00;59696.56;4972938;28;50923;-59
2021/06/28 04:31:13;;;;;;;;;2.67;2.00;;;;;-147.17;100.00;59696.56;4977641;28;51587;-60
2021/06/28 04:33:38;;;;;;;;;3.00;3.00;;;;;-147.17;100.00;59696.56;4972731;28;51467;-59
2021/06/28 04:36:04;;;;;;;;;1.67;1.67;;;;;-147.17;100.00;59696.56;4980774;28;51916;-60
2021/06/28 04:38:29;;;;;;;;;3.00;2.33;;;;;-147.17;100.00;59696.56;4995038;28;51017;-59
2021/06/28 04:40:54;;;;;;;;;1.67;1.67;;;;;-147.17;100.00;59696.56;4967456;28;51271;-58
2021/06/28 04:43:20;;;;;;;;;1.67;1.67;;;;;-147.17;100.00;59696.56;4972900;28;51084;-59
2021/06/28 04:45:45;;;;;;;;;3.00;2.33;;;;;-147.17;100.00;59696.56;4986397;28;51979;-59
2021/06/28 04:48:11;;;;;;;;;2.67;2.67;;;;;-147.17;100.00;59696.56;4962980;28;50974;-59
2021/06/28 04:50:36;;;;;;;;;2.33;1.67;;;;;-147.17;100.00;59696.56;4980281;28;51192;-59
2021/06/28 04:53:02;;;;;;;;;2.67;2.00;;;;;-147.17;100.00;59696.56;4954828;28;51443;-62
2021/06/28 04:55:27;;;;;;;;;2.33;1.67;;;;;-147.17;100.00;59696.56;4965887;28;54582;-60
2021/06/28 04:57:55;;;;;;;;;2.33;2.33;;;;;-147.17;100.00;59696.56;4991289;28;50951;-59
2021/06/28 05:00:24;;;;;;;;;1.67;0.67;;;;;-147.17;100.00;59696.56;4992296;28;51069;-59
2021/06/28 05:02:50;;;;;;;;;3.00;2.33;;;;;-147.17;100.00;59696.56;4991486;28;51057;-60
2021/06/28 05:05:15;;;;;;;;;3.33;3.33;;;;;-147.17;100.00;59696.56;4991110;28;52000;-59
2021/06/28 05:07:45;;;;;;;;;1.67;1.67;;;;;-147.17;100.00;59696.56;4991928;28;51041;-59
2021/06/28 05:10:12;;;;;;;;;2.00;2.00;;;;;-147.17;100.00;59696.56;4995236;28;51049;-60
2021/06/28 05:12:37;;;;;;;;;4.33;4.33;;;;;-147.17;100.00;59696.56;4977972;28;51125;-60
2021/06/28 05:15:05;;;;;;;;;2.67;2.67;;;;;-147.17;100.00;59696.56;4994790;28;51654;-60
2021/06/28 05:17:31;;;;;;;;;3.67;3.67;;;;;-147.17;100.00;59696.56;4975236;28;51059;-59
2021/06/28 05:19:56;;;;;;;;;3.67;3.67;;;;;-147.17;100.00;59696.56;4995880;28;51374;-59
2021/06/28 05:22:21;;;;;;;;;3.33;3.33;;;;;-147.17;100.00;59696.56;4999148;28;51106;-59
2021/06/28 05:24:47;;;;;;;;;2.33;2.33;;;;;-147.17;100.00;59696.56;4982176;28;50940;-60
2021/06/28 05:27:12;;;;;;;;;3.00;3.00;;;;;-147.17;100.00;59696.56;4977652;28;50884;-61
2021/06/28 05:29:38;;;;;;;;;3.67;3.67;;;;;-147.17;100.00;59696.56;4990381;28;51138;-59
2021/06/28 05:32:03;;;;;;;;;6.67;6.00;;;;;-147.17;100.00;59696.56;4988747;28;51255;-59
2021/06/28 05:34:29;;;;;;;;;4.00;3.67;;;;;-147.17;100.00;59696.56;4994206;28;52059;-59
2021/06/28 05:36:54;;;;;;;;;3.00;3.00;;;;;-147.17;100.00;59696.56;4994121;28;51167;-59
2021/06/28 05:39:19;;;;;;;;;5.33;4.33;;;;;-147.17;100.00;59696.56;4990894;28;51661;-61
2021/06/28 05:41:45;;;;;;;;;1.67;1.00;;;;;-147.17;100.00;59696.56;4988055;28;51244;-60
2021/06/28 05:44:10;;;;;;;;;2.67;2.67;;;;;-147.17;100.00;59696.56;4990926;28;51107;-61
2021/06/28 05:46:36;;;;;;;;;5.33;4.67;;;;;-147.17;100.00;59696.56;4988474;28;51233;-60
2021/06/28 05:49:01;;;;;;;;;4.67;3.67;;;;;-147.17;100.00;59696.56;4979419;28;51160;-59
2021/06/28 05:51:27;;;;;;;;;3.33;3.00;;;;;-147.17;100.00;59696.56;4990362;28;51132;-60
2021/06/28 05:53:52;;;;;;;;;3.33;3.33;;;;;-147.17;100.00;59696.56;4993730;28;51887;-59
2021/06/28 05:56:18;;;;;;;;;6.00;6.00;;;;;-147.17;100.00;59696.56;4988605;28;51053;-60
2021/06/28 05:58:44;;;;;;;;;3.67;3.67;;;;;-147.17;100.00;59696.56;4994180;28;51764;-59
2021/06/28 06:01:09;;;;;;;;;5.00;4.00;;;;;-147.17;100.00;59696.56;4969974;28;51159;-60
2021/06/28 06:03:35;;;;;;;;;5.67;5.00;;;;;-147.17;100.00;59696.56;4988973;28;51863;-60
2021/06/28 06:06:02;;;;;;;;;4.33;3.67;;;;;-147.17;100.00;59696.56;4966596;28;50955;-60
2021/06/28 06:08:28;;;;;;;;;4.33;4.33;;;;;-147.17;100.00;59696.56;4993749;28;50983;-59
2021/06/28 06:10:55;;;;;;;;;3.67;3.67;;;;;-147.17;100.00;59696.56;4991327;28;51093;-60
2021/06/28 06:13:22;;;;;;;;;5.00;4.67;;;;;-147.17;100.00;59696.56;4976397;28;52100;-60
2021/06/28 06:15:47;;;;;;;;;4.00;4.00;;;;;-147.17;100.00;59696.56;4986450;28;51095;-60
2021/06/28 06:18:13;;;;;;;;;5.33;5.00;;;;;-147.17;100.00;59696.56;4974114;28;51144;-62
2021/06/28 06:20:39;;;;;;;;;5.00;4.00;;;;;-147.17;100.00;59696.56;4993613;28;51282;-60
2021/06/28 06:23:04;;;;;;;;;3.00;3.00;;;;;-147.17;100.00;59696.56;4993581;28;51042;-60
2021/06/28 06:25:30;;;;;;;;;4.00;4.00;;;;;-147.17;100.00;59696.56;4988107;28;51053;-59
2021/06/28 06:27:55;;;;;;;;;4.00;4.00;;;;;-147.17;100.00;59696.56;4993099;28;52023;-60
2021/06/28 06:30:21;;;;;;;;;4.67;4.00;;;;;-147.17;100.00;59696.56;4991709;28;51036;-60
2021/06/28 06:32:48;;;;;;;;;5.00;3.33;;;;;-147.17;100.00;59696.56;4972946;28;52286;-61
2021/06/28 06:35:13;;;;;;;;;4.00;4.00;;;;;-147.17;100.00;59696.56;4982530;28;51112;-61
2021/06/28 06:37:39;;;;;;;;;5.33;4.67;;;;;-147.17;100.00;59696.56;4982569;28;51183;-61
2021/06/28 06:40:05;;;;;;;;;5.33;5.00;;;;;-147.17;100.00;59696.56;4978471;28;50979;-61
2021/06/28 06:42:31;;;;;;;;;8.67;7.00;;;;;-147.17;100.00;59696.56;4973329;28;52356;-61
2021/06/28 06:44:56;;;;;;;;;4.00;4.00;;;;;-147.17;100.00;59696.56;4976187;28;51099;-60
2021/06/28 06:47:22;;;;;;;;;5.67;5.67;;;;;-147.17;100.00;59696.56;4993209;28;51139;-59
2021/06/28 06:49:47;;;;;;;;;6.00;5.33;;;;;-147.17;100.00;59696.56;4992743;28;50994;-61
2021/06/28 06:52:13;;;;;;;;;3.33;3.33;;;;;-147.17;100.00;59696.56;4992617;28;51928;-61
2021/06/28 06:54:39;;;;;;;;;4.33;4.00;;;;;-147.17;100.00;59696.56;4992591;28;50963;-62
2021/06/28 06:57:06;;;;;;;;;6.33;5.33;;;;;-147.17;100.00;59696.56;4971953;28;51033;-61
2021/06/28 06:59:31;;;;;;;;;7.00;6.00;;;;;-147.17;100.00;59696.56;4990188;28;51261;-61
2021/06/28 07:01:56;;;;;;;;;5.00;5.00;;;;;-147.17;100.00;59696.56;4990015;28;52888;-61
2021/06/28 07:04:22;;;;;;;;;5.00;5.00;;;;;-147.17;100.00;59696.56;4962879;28;51043;-60
2021/06/28 07:06:47;;;;;;;;;8.67;7.67;;;;;-147.17;100.00;59696.56;4990796;28;50907;-61
2021/06/28 07:09:13;;;;;;;;;4.67;4.00;;;;;-147.17;100.00;59696.56;4973019;28;51144;-60
2021/06/28 07:11:38;;;;;;;;;6.00;5.00;;;;;-147.17;100.00;59696.56;4973478;28;50966;-60
2021/06/28 07:14:03;;;;;;;;;5.00;5.00;;;;;-147.17;100.00;59696.56;4973830;28;51050;-61
2021/06/28 07:16:31;;;;;;;;;6.67;6.67;;;;;-147.17;100.00;59696.56;4973478;28;50893;-60
2021/06/28 07:19:02;;;;;;;;;7.00;6.33;;;;;-147.17;100.00;59696.56;4973170;28;51026;-60
2021/06/28 07:21:28;;;;;;;;;8.33;6.67;;;;;-147.17;100.00;59696.56;4984102;28;51889;-60
2021/06/28 07:23:55;;;;;;;;;6.00;6.00;;;;;-147.17;100.00;59696.56;4974914;28;51261;-61
2021/06/28 07:26:21;;;;;;;;;4.67;4.00;;;;;-147.17;100.00;59696.56;4973320;28;50948;-60
2021/06/28 07:28:46;;;;;;;;;5.67;5.67;;;;;-147.17;100.00;59696.56;4955297;28;51085;-61
2021/06/28 07:31:12;;;;;;;;;6.33;5.33;;;;;-147.17;100.00;59696.56;4972595;28;51138;-61
2021/06/28 07:33:40;;;;;;;;;4.33;4.00;;;;;-147.17;100.00;59696.56;4971949;28;51098;-60
2021/06/28 07:36:07;;;;;;;;;5.00;5.00;;;;;-147.17;100.00;59696.56;4975751;28;52948;-60
2021/06/28 07:38:32;;;;;;;;;6.00;5.00;;;;;-147.17;100.00;59696.56;4978098;28;51438;-61
2021/06/28 07:40:58;;;;;;;;;5.33;5.33;;;;;-147.17;100.00;59696.56;4992248;28;51034;-60
2021/06/28 07:43:23;;;;;;;;;3.67;3.67;;;;;-147.17;100.00;59696.56;4988541;28;51059;-60
2021/06/28 07:45:49;;;;;;;;;4.00;3.00;;;;;-147.17;100.00;59696.56;4989837;28;51468;-61
2021/06/28 07:48:15;;;;;;;;;5.00;4.33;;;;;-147.17;100.00;59696.56;4974562;28;51366;-62
2021/06/28 07:50:42;;;;;;;;;6.00;5.00;;;;;-147.17;100.00;59696.56;4983221;28;51154;-60
2021/06/28 07:53:08;;;;;;;;;3.67;3.00;;;;;-147.17;100.00;59696.56;4954076;28;51201;-60
2021/06/28 07:55:33;;;;;;;;;5.00;5.00;;;;;-147.17;100.00;59696.56;4970592;28;51285;-59
2021/06/28 07:57:59;;;;;;;;;4.33;4.00;;;;;-147.17;100.00;59696.56;4972468;28;51362;-60
2021/06/28 08:00:24;;;;;;;;;4.00;2.33;;;;;-147.17;100.00;59696.56;4971800;28;51132;-61
2021/06/28 08:02:50;;;;;;;;;3.33;3.00;;;;;-147.17;100.00;59696.56;4972652;28;51030;-60
2021/06/28 08:05:16;;;;;;;;;3.00;2.67;;;;;-147.17;100.00;59696.56;4971503;28;51114;-61
2021/06/28 08:07:42;;;;;;;;;4.00;3.00;;;;;-147.17;100.00;59696.56;4960474;28;51232;-60
2021/06/28 08:10:09;;;;;;;;;4.33;3.00;;;;;-147.17;100.00;59696.56;4979967;28;52290;-60
2021/06/28 08:12:35;;;;;;;;;3.33;3.33;;;;;-147.17;100.00;59696.56;4938852;28;51127;-60
2021/06/28 08:15:01;;;;;;;;;3.00;3.00;;;;;-147.17;100.00;59696.56;4973018;28;51068;-60
2021/06/28 08:17:26;;;;;;;;;2.00;2.00;;;;;-147.17;100.00;59696.56;4972950;28;51010;-60
2021/06/28 08:19:52;;;;;;;;;4.00;3.33;;;;;-147.17;100.00;59696.56;4972388;28;51862;-61
2021/06/28 08:22:18;;;;;;;;;2.00;2.00;;;;;-147.17;100.00;59696.56;4984786;28;51199;-60
2021/06/28 08:24:44;;;;;;;;;7.33;7.33;;;;;-147.17;100.00;59696.56;4972271;28;50895;-61
2021/06/28 08:27:09;;;;;;;;;4.67;4.67;;;;;-147.17;100.00;59696.56;4972590;28;51380;-60
2021/06/28 08:29:35;;;;;;;;;2.00;2.00;;;;;-147.17;100.00;59696.56;4972147;28;51035;-62
2021/06/28 08:32:01;;;;;;;;;2.33;2.33;;;;;-147.17;100.00;59696.56;4972477;28;51148;-61
2021/06/28 08:34:26;;;;;;;;;2.67;2.33;;;;;-147.17;100.00;59696.56;4972885;28;51091;-61
2021/06/28 08:36:53;;;;;;;;;1.00;1.00;;;;;-147.17;100.00;59696.56;4975285;28;51336;-61
2021/06/28 08:39:18;;;;;;;;;1.33;1.00;;;;;-147.17;100.00;59696.56;4989465;28;51217;-62
2021/06/28 08:41:49;;;;;;;;;3.33;2.00;;;;;-147.17;100.00;59696.56;4976498;28;51098;-60
2021/06/28 08:44:15;;;;;;;;;2.00;1.50;;;;;-147.17;100.00;59696.56;4996054;28;51222;-60
2021/06/28 08:46:42;;;;;;;;;1.67;1.67;;;;;-147.17;100.00;59696.56;4998714;28;51010;-60
2021/06/28 08:49:08;;;;;;;;;4.00;3.00;;;;;-147.17;100.00;59696.56;4998172;28;52013;-61
2021/06/28 08:51:34;;;;;;;;;8.67;8.67;;;;;-147.17;100.00;59696.56;4980157;28;51041;-60
2021/06/28 08:54:05;;;;;;;;;4.33;4.00;;;;;-147.17;100.00;59696.56;4999082;28;51283;-61
2021/06/28 08:56:30;;;;;;;;;2.00;2.00;;;;;-147.17;100.00;59696.56;4979222;28;51037;-60
2021/06/28 08:58:56;;;;;;;;;2.33;2.33;;;;;-147.17;100.00;59696.56;4982075;28;51666;-62
2021/06/28 09:01:22;;;;;;;;;1.00;1.00;;;;;-147.17;100.00;59696.56;4979496;28;50907;-61
2021/06/28 09:03:47;;;;;;;;;3.00;3.00;;;;;-147.17;100.00;59696.56;4978855;28;51204;-61
2021/06/28 09:06:16;;;;;;;;;3.00;2.00;;;;;-147.17;100.00;59696.56;4984167;28;51574;-61
2021/06/28 09:09:01;;;;;;;;;3.00;3.00;;;;;-147.17;100.00;59696.56;4970511;28;51318;-61
2021/06/28 09:11:27;;;;;;;;;2.00;1.67;;;;;-147.17;100.00;59696.56;4997127;28;51179;-61
2021/06/28 09:13:56;;;;;;;;;1.33;1.33;;;;;-147.17;100.00;59696.56;4997212;28;51122;-61
2021/06/28 09:16:24;;;;;;;;;2.00;2.00;;;;;-147.17;100.00;59696.56;4992237;28;51465;-61
2021/06/28 09:18:52;;;;;;;;;2.00;2.00;;;;;-147.17;100.00;59696.56;4994825;28;52449;-60
2021/06/28 09:21:24;;;;;;;;;4.67;4.67;;;;;-147.17;100.00;59696.56;4996237;28;51012;-60
2021/06/28 09:23:50;;;;;;;;;3.00;2.00;;;;;-147.17;100.00;59696.56;4984995;28;51130;-61
2021/06/28 09:26:16;;;;;;;;;2.00;1.67;;;;;-147.17;100.00;59696.56;4960534;28;51396;-60
2021/06/28 09:28:44;;;;;;;;;2.00;2.00;;;;;-147.17;100.00;59696.56;4977562;28;52055;-62
2021/06/28 09:31:28;;;;;;;;;1.00;1.00;;;;;-147.17;100.00;59696.56;4984174;28;51071;-61
2021/06/28 09:34:02;;;;;;;;;3.00;2.00;;;;;-147.17;100.00;59696.56;4996573;28;51206;-61
2021/06/28 09:36:28;;;;;;;;;2.00;2.00;;;;;-147.17;100.00;59696.56;4979670;28;50990;-60
2021/06/28 09:38:53;;;;;;;;;1.67;1.67;;;;;-147.17;100.00;59696.56;4991536;28;51642;-60
2021/06/28 09:41:21;;;;;;;;;0.67;0.67;;;;;-147.17;100.00;59696.56;4979382;28;51035;-61
2021/06/28 09:43:47;;;;;;;;;5.33;4.67;;;;;-147.17;100.00;59696.56;4987216;28;51037;-61
2021/06/28 09:46:20;;;;;;;;;3.67;3.67;;;;;-147.17;100.00;59696.56;4985799;28;51411;-61
2021/06/28 09:48:49;;;;;;;;;0.00;0.00;;;;;-147.17;100.00;59696.56;4980630;28;52362;-60
2021/06/28 09:51:36;;;;;;;;;1.33;1.33;;;;;-147.17;100.00;59696.56;4959448;28;51075;-60
2021/06/28 09:54:08;;;;;;;;;5.33;5.33;;;;;-147.17;100.00;59696.56;4977297;28;51042;-59
2021/06/28 09:56:36;;;;;;;;;3.00;2.00;;;;;-147.17;100.00;59696.56;4973888;28;51234;-61
2021/06/28 09:59:26;;;;;;;;;2.00;2.00;;;;;-147.17;100.00;59696.56;4973895;28;51148;-60
2021/06/28 10:02:15;;;;;;;;;1.67;1.67;;;;;-147.17;100.00;59696.56;4974331;28;50980;-60
2021/06/28 10:04:49;;;;;;;;;1.00;1.00;;;;;-147.17;100.00;59696.56;4974587;28;51091;-61
2021/06/28 10:07:21;;;;;;;;;2.33;2.00;;;;;-147.17;100.00;59696.56;4989631;28;50919;-60
2021/06/28 10:10:19;;;;;;;;;3.00;2.00;;;;;-147.17;100.00;59696.56;4991561;28;51966;-61
2021/06/28 10:13:06;;;;;;;;;2.00;2.00;;;;;-147.17;100.00;59696.56;4973729;28;51231;-61
2021/06/28 10:15:41;;;;;;;;;2.33;1.67;;;;;-147.17;100.00;59696.56;4980864;28;51161;-61
2021/06/28 10:18:09;;;;;;;;;1.33;1.33;;;;;-147.17;100.00;59696.56;4957044;28;51079;-60
2021/06/28 10:20:38;;;;;;;;;2.00;2.00;;;;;-147.17;100.00;59696.56;4962378;28;51280;-61
2021/06/28 10:23:04;;;;;;;;;3.00;3.00;;;;;-147.17;100.00;59696.56;4965429;28;50956;-61
2021/06/28 10:25:30;;;;;;;;;1.33;1.33;;;;;-147.17;100.00;59696.56;4973861;28;50937;-61
2021/06/28 10:27:57;;;;;;;;;4.00;4.00;;;;;-147.17;100.00;59696.56;4974299;28;51410;-60
2021/06/28 10:30:27;;;;;;;;;1.67;1.67;;;;;-147.17;100.00;59696.56;4973841;28;51476;-60
2021/06/28 10:33:08;;;;;;;;;2.00;2.00;;;;;-147.17;100.00;59696.56;4974334;28;50995;-61
2021/06/28 10:35:37;;;;;;;;;1.00;1.00;;;;;-147.17;100.00;59696.56;4981810;28;51061;-61
2021/06/28 10:38:05;;;;;;;;;2.00;2.00;;;;;-147.17;100.00;59696.56;5001292;28;51228;-59
2021/06/28 10:40:57;;;;;;;;;2.00;2.00;;;;;-147.17;100.00;59696.56;4981953;28;52663;-62
2021/06/28 10:43:27;;;;;;;;;1.00;1.00;;;;;-147.17;100.00;59696.56;4967733;28;51350;-61
2021/06/28 10:45:53;;;;;;;;;2.00;2.00;;;;;-147.17;100.00;59696.56;4993324;28;51055;-60
2021/06/28 10:48:22;;;;;;;;;0.67;0.67;;;;;-147.17;100.00;59696.56;4993409;28;51073;-62
2021/06/28 10:50:50;;;;;;;;;2.00;2.00;;;;;-147.17;100.00;59696.56;4975352;28;51004;-61
2021/06/28 10:53:17;;;;;;;;;1.00;1.00;;;;;-147.17;100.00;59696.56;4993132;28;51040;-62
2021/06/28 10:55:42;;;;;;;;;1.33;1.33;;;;;-147.17;100.00;59696.56;4992936;28;51192;-61
2021/06/28 10:58:26;;;;;;;;;1.33;1.33;;;;;-147.17;100.00;59696.56;4992712;28;51328;-62
2021/06/28 11:01:00;;;;;;;;;3.00;3.00;;;;;-147.17;100.00;59696.56;4992656;28;51978;-61
2021/06/28 11:03:26;;;;;;;;;4.00;3.00;;;;;-147.17;100.00;59696.56;4993275;28;51198;-61
2021/06/28 11:06:13;;;;;;;;;3.00;2.00;;;;;-147.17;100.00;59696.56;4992777;28;51378;-61
2021/06/28 11:08:58;;;;;;;;;3.00;3.00;;;;;-147.17;100.00;59696.56;4984166;28;51153;-60